createdAt,value
2023-07-16T00:00:34.861Z,97219.84
2023-07-16T00:03:01.553Z,97197.44
2023-07-16T00:05:28.189Z,97243.59
2023-07-16T00:07:54.841Z,97232.00
2023-07-16T00:10:21.558Z,97230.19
2023-07-16T00:12:48.908Z,97213.44
2023-07-16T00:15:15.616Z,97189.19
2023-07-16T00:17:42.274Z,97225.91
2023-07-16T00:20:10.230Z,97205.16
2023-07-16T00:22:36.948Z,97229.47
2023-07-16T00:25:04.033Z,97218.97
2023-07-16T00:27:30.669Z,97170.66
2023-07-16T00:29:57.284Z,97174.59
2023-07-16T00:32:23.886Z,97136.56
2023-07-16T00:34:50.532Z,97224.63
2023-07-16T00:37:17.199Z,97206.75
2023-07-16T00:39:43.972Z,97197.09
2023-07-16T00:42:10.607Z,97233.75
2023-07-16T00:44:37.363Z,97218.50
2023-07-16T00:47:04.996Z,97180.97
2023-07-16T00:49:33.240Z,97203.16
2023-07-16T00:52:01.532Z,97218.13
2023-07-16T00:54:29.292Z,97203.59
2023-07-16T00:56:56.057Z,97193.72
2023-07-16T00:59:22.707Z,97220.22
2023-07-16T01:01:49.520Z,97186.50
2023-07-16T01:04:16.368Z,97102.63
2023-07-16T01:06:47.963Z,97188.78
2023-07-16T01:09:19.884Z,97211.63
2023-07-16T01:11:48.154Z,97213.19
2023-07-16T01:14:18.885Z,97185.59
2023-07-16T01:16:46.253Z,97142.66
2023-07-16T01:19:14.767Z,97220.66
2023-07-16T01:21:56.891Z,97217.19
2023-07-16T01:24:47.755Z,97219.72
2023-07-16T01:27:36.073Z,97221.47
2023-07-16T01:30:04.656Z,97219.19
2023-07-16T01:32:34.865Z,97196.56
2023-07-16T01:35:03.330Z,97204.22
2023-07-16T01:37:29.978Z,97203.53
2023-07-16T01:39:56.648Z,97190.16
2023-07-16T01:42:23.340Z,97191.31
2023-07-16T01:44:50.030Z,97205.03
2023-07-16T01:47:27.573Z,97163.47
2023-07-16T01:49:54.222Z,97182.94
2023-07-16T01:52:20.828Z,97175.88
2023-07-16T01:54:47.404Z,97212.03
2023-07-16T01:57:14.058Z,97167.25
2023-07-16T01:59:40.753Z,97181.00
2023-07-16T02:02:07.634Z,97207.84
2023-07-16T02:04:34.482Z,97208.75
2023-07-16T02:07:01.158Z,97206.59
2023-07-16T02:09:27.789Z,97133.78
2023-07-16T02:11:54.496Z,97199.84
2023-07-16T02:14:21.220Z,97207.25
2023-07-16T02:16:47.868Z,97209.94
2023-07-16T02:19:14.633Z,97185.63
2023-07-16T02:21:41.271Z,97193.09
2023-07-16T02:24:07.981Z,97212.78
2023-07-16T02:26:34.622Z,97178.75
2023-07-16T02:29:01.491Z,97155.47
2023-07-16T02:31:28.206Z,97172.41
2023-07-16T02:33:54.856Z,97197.97
2023-07-16T02:36:21.542Z,97206.25
2023-07-16T02:38:48.210Z,97186.50
2023-07-16T02:41:14.818Z,97214.09
2023-07-16T02:43:41.485Z,97133.34
2023-07-16T02:46:08.246Z,97153.25
2023-07-16T02:48:34.906Z,97196.03
2023-07-16T02:51:01.538Z,97215.06
2023-07-16T02:53:28.217Z,97226.00
2023-07-16T02:55:54.817Z,97200.59
2023-07-16T02:58:21.475Z,97187.91
2023-07-16T03:00:48.135Z,96944.88
2023-07-16T03:03:15.094Z,97194.75
2023-07-16T03:05:41.861Z,97118.94
2023-07-16T03:08:08.477Z,97223.69
2023-07-16T03:10:35.153Z,97138.84
2023-07-16T03:13:01.819Z,97225.31
2023-07-16T03:15:28.516Z,97226.66
2023-07-16T03:17:55.229Z,97185.50
2023-07-16T03:20:21.883Z,97231.63
2023-07-16T03:22:49.226Z,97230.81
2023-07-16T03:25:16.427Z,97231.47
2023-07-16T03:27:43.166Z,97239.56
2023-07-16T03:30:10.245Z,97198.63
2023-07-16T03:32:51.246Z,97223.69
2023-07-16T03:35:19.874Z,97215.00
2023-07-16T03:37:46.572Z,97151.41
2023-07-16T03:40:18.155Z,97157.72
2023-07-16T03:42:44.960Z,97218.06
2023-07-16T03:45:12.190Z,97229.88
2023-07-16T03:47:39.192Z,97237.66
2023-07-16T03:50:06.675Z,97209.97
2023-07-16T03:52:33.357Z,97223.63
2023-07-16T03:55:00.218Z,97212.94
2023-07-16T03:57:29.490Z,97247.59
2023-07-16T03:59:56.355Z,97222.44
2023-07-16T04:02:24.734Z,97243.25
2023-07-16T04:04:51.693Z,97238.59
2023-07-16T04:07:19.107Z,97234.53
2023-07-16T04:09:45.766Z,97246.94
2023-07-16T04:12:12.413Z,97244.88
2023-07-16T04:14:39.104Z,97193.06
2023-07-16T04:17:06.088Z,97015.56
2023-07-16T04:19:32.871Z,97246.81
2023-07-16T04:21:59.565Z,97258.25
2023-07-16T04:24:28.184Z,97247.97
2023-07-16T04:26:55.313Z,97226.81
2023-07-16T04:29:22.281Z,97242.16
2023-07-16T04:31:48.973Z,97246.66
2023-07-16T04:34:15.614Z,97236.03
2023-07-16T04:36:44.042Z,97223.25
2023-07-16T04:39:10.824Z,97174.84
2023-07-16T04:41:37.932Z,97255.41
2023-07-16T04:44:05.623Z,97246.69
2023-07-16T04:46:32.391Z,97233.19
2023-07-16T04:48:59.090Z,97267.81
2023-07-16T04:51:25.683Z,97244.47
2023-07-16T04:53:52.537Z,97261.19
2023-07-16T04:56:19.401Z,97253.03
2023-07-16T04:58:46.375Z,97205.88
2023-07-16T05:01:13.200Z,97247.75
2023-07-16T05:03:39.848Z,97239.13
2023-07-16T05:06:06.830Z,97244.81
2023-07-16T05:08:33.552Z,97247.59
2023-07-16T05:11:00.344Z,97248.66
2023-07-16T05:13:27.321Z,97247.28
2023-07-16T05:15:54.200Z,97224.53
2023-07-16T05:18:22.513Z,97206.38
2023-07-16T05:20:50.114Z,97213.69
2023-07-16T05:23:17.018Z,97226.84
2023-07-16T05:25:48.873Z,97256.84
2023-07-16T05:28:19.746Z,97203.31
2023-07-16T05:30:46.421Z,97235.34
2023-07-16T05:33:13.107Z,97249.59
2023-07-16T05:35:42.886Z,97250.22
2023-07-16T05:38:09.544Z,97254.63
2023-07-16T05:40:36.275Z,97227.13
2023-07-16T05:43:03.170Z,97253.25
2023-07-16T05:45:30.662Z,97251.38
2023-07-16T05:47:57.283Z,97255.44
2023-07-16T05:50:24.029Z,97254.63
2023-07-16T05:52:50.752Z,97256.63
2023-07-16T05:55:18.618Z,97226.06
2023-07-16T05:57:45.263Z,97240.88
2023-07-16T06:00:12.372Z,97251.81
2023-07-16T06:02:39.116Z,97261.72
2023-07-16T06:05:06.551Z,97205.00
2023-07-16T06:07:33.356Z,97263.03
2023-07-16T06:10:00.458Z,97261.47
2023-07-16T06:12:27.338Z,97217.78
2023-07-16T06:14:54.406Z,97257.06
2023-07-16T06:17:21.161Z,97258.91
2023-07-16T06:19:51.321Z,97181.31
2023-07-16T06:22:18.068Z,97222.59
2023-07-16T06:24:44.832Z,97249.31
2023-07-16T06:27:11.509Z,97263.75
2023-07-16T06:29:38.258Z,97236.06
2023-07-16T06:32:05.349Z,97253.66
2023-07-16T06:34:32.129Z,97254.66
2023-07-16T06:36:58.939Z,97249.28
2023-07-16T06:39:25.690Z,97187.88
2023-07-16T06:41:52.388Z,97229.19
2023-07-16T06:44:20.275Z,97011.53
2023-07-16T06:46:46.971Z,97219.81
2023-07-16T06:49:13.617Z,97219.72
2023-07-16T06:51:40.214Z,97204.91
2023-07-16T06:54:08.356Z,97213.06
2023-07-16T06:56:35.092Z,97231.97
2023-07-16T06:59:01.720Z,97040.50
2023-07-16T07:01:29.318Z,97230.09
2023-07-16T07:03:56.378Z,97182.25
2023-07-16T07:06:25.443Z,97245.28
2023-07-16T07:08:52.724Z,97137.63
2023-07-16T07:11:19.374Z,97237.38
2023-07-16T07:13:46.045Z,97182.44
2023-07-16T07:16:12.786Z,97241.63
2023-07-16T07:18:39.452Z,97162.88
2023-07-16T07:21:06.133Z,97233.56
2023-07-16T07:23:32.841Z,97233.56
2023-07-16T07:26:00.864Z,97173.25
2023-07-16T07:28:28.752Z,97208.91
2023-07-16T07:30:55.989Z,97226.88
2023-07-16T07:33:23.052Z,97235.72
2023-07-16T07:35:49.906Z,97199.50
2023-07-16T07:38:16.694Z,97202.25
2023-07-16T07:40:46.462Z,97042.00
2023-07-16T07:43:13.205Z,97238.00
2023-07-16T07:45:39.955Z,97173.50
2023-07-16T07:48:06.749Z,97209.66
2023-07-16T07:50:33.419Z,97221.03
2023-07-16T07:53:00.103Z,97222.59
2023-07-16T07:55:26.732Z,97187.09
2023-07-16T07:57:53.423Z,97149.81
2023-07-16T08:00:21.034Z,97213.28
2023-07-16T08:02:48.180Z,97221.22
2023-07-16T08:05:15.207Z,97160.59
2023-07-16T08:07:41.980Z,97222.28
2023-07-16T08:10:08.953Z,97226.94
2023-07-16T08:12:35.721Z,97195.44
2023-07-16T08:15:02.435Z,97193.47
2023-07-16T08:17:29.194Z,97229.38
2023-07-16T08:19:56.056Z,97195.69
2023-07-16T08:22:24.962Z,97226.06
2023-07-16T08:24:52.655Z,97227.44
2023-07-16T08:27:20.709Z,97230.38
2023-07-16T08:29:47.590Z,97223.97
2023-07-16T08:32:14.271Z,97216.75
2023-07-16T08:34:40.977Z,97185.97
2023-07-16T08:37:07.607Z,97219.28
2023-07-16T08:39:35.031Z,97197.78
2023-07-16T08:42:02.660Z,97141.84
2023-07-16T08:44:30.776Z,97210.09
2023-07-16T08:46:57.742Z,97213.44
2023-07-16T08:49:24.928Z,97206.75
2023-07-16T08:51:53.195Z,97208.03
2023-07-16T08:54:21.050Z,97207.78
2023-07-16T08:56:49.128Z,97193.41
2023-07-16T08:59:16.316Z,97162.00
2023-07-16T09:01:43.268Z,97209.72
2023-07-16T09:04:09.946Z,97138.59
2023-07-16T09:06:36.576Z,97207.50
2023-07-16T09:09:03.391Z,97150.47
2023-07-16T09:11:30.179Z,97212.84
2023-07-16T09:13:56.800Z,97216.56
2023-07-16T09:16:23.537Z,97174.75
2023-07-16T09:18:50.190Z,97200.38
2023-07-16T09:21:16.876Z,97195.94
2023-07-16T09:23:43.789Z,97201.94
2023-07-16T09:26:10.641Z,97199.84
2023-07-16T09:28:37.398Z,97176.81
2023-07-16T09:31:08.715Z,97192.00
2023-07-16T09:33:35.716Z,97176.16
2023-07-16T09:36:04.063Z,97189.88
2023-07-16T09:38:31.337Z,97199.00
2023-07-16T09:40:58.211Z,97175.22
2023-07-16T09:43:25.078Z,97180.00
2023-07-16T09:45:52.035Z,97185.09
2023-07-16T09:48:18.957Z,97155.84
2023-07-16T09:50:54.384Z,97186.66
2023-07-16T09:53:22.594Z,97175.22
2023-07-16T09:55:50.455Z,97168.31
2023-07-16T09:58:20.947Z,97158.44
2023-07-16T10:00:49.742Z,97155.91
2023-07-16T10:03:18.005Z,97177.09
2023-07-16T10:05:45.426Z,97132.13
2023-07-16T10:08:20.265Z,97132.84
2023-07-16T10:10:59.589Z,97165.66
2023-07-16T10:13:26.256Z,97157.00
2023-07-16T10:15:58.224Z,97145.16
2023-07-16T10:18:32.097Z,97122.47
2023-07-16T10:21:09.739Z,97130.56
2023-07-16T10:23:41.820Z,97150.91
2023-07-16T10:26:11.539Z,97099.47
2023-07-16T10:28:39.477Z,97089.22
2023-07-16T10:31:09.089Z,97143.47
2023-07-16T10:33:38.724Z,97119.63
2023-07-16T10:36:05.672Z,97132.84
2023-07-16T10:38:42.021Z,97131.72
2023-07-16T10:41:08.719Z,97132.84
2023-07-16T10:43:35.723Z,97131.06
2023-07-16T10:46:03.826Z,97123.91
2023-07-16T10:48:30.858Z,97124.28
2023-07-16T10:50:57.716Z,97124.84
2023-07-16T10:53:24.403Z,97120.72
2023-07-16T10:55:51.135Z,97130.47
2023-07-16T10:58:18.017Z,97120.09
2023-07-16T11:00:46.099Z,97120.91
2023-07-16T11:03:17.613Z,97119.81
2023-07-16T11:05:47.729Z,97112.72
2023-07-16T11:08:25.764Z,97123.31
2023-07-16T11:10:59.062Z,97105.47
2023-07-16T11:13:29.979Z,97039.19
2023-07-16T11:15:56.722Z,97036.03
2023-07-16T11:18:25.666Z,97071.63
2023-07-16T11:20:55.544Z,97099.44
2023-07-16T11:23:24.175Z,97083.59
2023-07-16T11:25:50.899Z,97083.28
2023-07-16T11:28:17.631Z,97049.03
2023-07-16T11:30:44.410Z,97085.22
2023-07-16T11:33:14.769Z,97068.41
2023-07-16T11:35:41.714Z,97067.59
2023-07-16T11:38:09.100Z,97085.09
2023-07-16T11:40:36.994Z,97091.84
2023-07-16T11:43:13.579Z,97098.97
2023-07-16T11:45:41.052Z,97077.34
2023-07-16T11:48:08.042Z,97082.03
2023-07-16T11:50:34.767Z,97086.50
2023-07-16T11:53:05.190Z,97086.13
2023-07-16T11:55:31.813Z,97071.59
2023-07-16T11:58:00.867Z,97071.94
2023-07-16T12:00:27.892Z,96946.78
2023-07-16T12:02:54.712Z,97048.94
2023-07-16T12:05:33.719Z,97076.66
2023-07-16T12:08:15.253Z,97072.00
2023-07-16T12:10:42.592Z,97050.56
2023-07-16T12:13:09.360Z,97022.28
2023-07-16T12:15:36.014Z,97081.16
2023-07-16T12:18:02.626Z,97078.22
2023-07-16T12:20:29.379Z,97074.19
2023-07-16T12:22:56.304Z,97070.44
2023-07-16T12:25:22.999Z,97067.13
2023-07-16T12:27:50.472Z,97046.81
2023-07-16T12:30:18.622Z,97075.56
2023-07-16T12:32:45.330Z,97079.91
2023-07-16T12:35:12.126Z,97074.03
2023-07-16T12:37:40.784Z,96890.97
2023-07-16T12:40:08.189Z,97062.56
2023-07-16T12:42:34.900Z,97049.94
2023-07-16T12:45:02.963Z,97075.66
2023-07-16T12:47:29.660Z,97049.06
2023-07-16T12:49:56.442Z,97029.44
2023-07-16T12:52:23.137Z,97070.16
2023-07-16T12:54:49.794Z,97076.50
2023-07-16T12:57:18.142Z,97070.25
2023-07-16T12:59:44.919Z,97021.56
2023-07-16T13:02:11.630Z,97065.56
2023-07-16T13:04:38.278Z,97068.50
2023-07-16T13:07:05.168Z,97072.56
2023-07-16T13:09:31.797Z,96997.84
2023-07-16T13:11:58.481Z,97064.38
2023-07-16T13:14:25.167Z,97051.06
2023-07-16T13:16:51.862Z,96993.09
2023-07-16T13:19:18.568Z,97054.88
2023-07-16T13:21:45.211Z,96888.94
2023-07-16T13:24:11.912Z,97047.09
2023-07-16T13:26:38.577Z,97053.91
2023-07-16T13:29:05.247Z,97050.84
2023-07-16T13:31:32.020Z,97018.31
2023-07-16T13:33:58.749Z,97032.81
2023-07-16T13:36:25.340Z,97049.16
2023-07-16T13:38:52.012Z,97041.47
2023-07-16T13:41:19.202Z,97026.31
2023-07-16T13:43:45.933Z,96914.53
2023-07-16T13:46:12.596Z,97032.81
2023-07-16T13:48:56.436Z,97027.88
2023-07-16T13:51:25.508Z,96972.69
2023-07-16T13:53:52.190Z,97028.25
2023-07-16T13:56:19.444Z,97025.34
2023-07-16T13:58:46.267Z,97026.56
2023-07-16T14:01:12.977Z,97023.47
2023-07-16T14:03:39.850Z,97020.78
2023-07-16T14:06:06.619Z,97024.84
2023-07-16T14:08:35.257Z,97021.53
2023-07-16T14:11:01.989Z,97029.91
2023-07-16T14:13:28.696Z,97020.50
2023-07-16T14:15:55.598Z,97021.53
2023-07-16T14:18:22.315Z,97006.94
2023-07-16T14:20:48.960Z,97008.72
2023-07-16T14:23:15.659Z,97016.06
2023-07-16T14:25:42.448Z,97009.09
2023-07-16T14:28:09.134Z,97013.84
2023-07-16T14:30:35.915Z,97014.13
2023-07-16T14:33:05.154Z,96981.72
2023-07-16T14:35:37.113Z,96955.22
2023-07-16T14:38:04.696Z,97002.59
2023-07-16T14:40:31.479Z,96979.13
2023-07-16T14:42:58.159Z,96998.84
2023-07-16T14:45:24.822Z,96983.25
2023-07-16T14:47:51.571Z,96993.06
2023-07-16T14:50:18.400Z,96990.81
2023-07-16T14:52:45.025Z,96994.84
2023-07-16T14:55:11.831Z,96953.50
2023-07-16T14:57:38.427Z,96987.19
2023-07-16T15:00:08.710Z,96937.69
2023-07-16T15:02:35.557Z,96982.47
2023-07-16T15:05:02.373Z,96986.78
2023-07-16T15:07:29.035Z,96971.91
2023-07-16T15:09:55.874Z,96946.63
2023-07-16T15:12:22.556Z,96960.94
2023-07-16T15:14:49.243Z,96981.59
2023-07-16T15:17:15.932Z,96980.47
2023-07-16T15:19:42.575Z,96973.59
2023-07-16T15:22:10.926Z,96987.56
2023-07-16T15:24:40.292Z,96982.53
2023-07-16T15:27:07.109Z,96975.69
2023-07-16T15:29:33.777Z,96970.41
2023-07-16T15:32:02.824Z,96984.19
2023-07-16T15:34:29.934Z,96934.72
2023-07-16T15:36:56.666Z,96982.88
2023-07-16T15:39:23.323Z,96950.38
2023-07-16T15:41:50.005Z,96978.88
2023-07-16T15:44:17.883Z,96984.44
2023-07-16T15:46:45.001Z,96990.47
2023-07-16T15:49:12.265Z,96968.59
2023-07-16T15:51:42.116Z,96679.44
2023-07-16T15:54:09.045Z,96956.94
2023-07-16T15:56:35.800Z,96976.69
2023-07-16T15:59:02.581Z,96970.88
2023-07-16T16:01:29.458Z,96974.59
2023-07-16T16:03:56.250Z,96972.53
2023-07-16T16:06:22.968Z,96982.28
2023-07-16T16:08:49.701Z,96973.59
2023-07-16T16:11:16.727Z,96944.53
2023-07-16T16:13:44.575Z,96971.84
2023-07-16T16:16:11.239Z,96991.53
2023-07-16T16:18:38.019Z,96966.59
2023-07-16T16:21:05.014Z,96985.03
2023-07-16T16:23:31.679Z,96984.84
2023-07-16T16:25:58.497Z,96995.78
2023-07-16T16:28:25.158Z,96999.28
2023-07-16T16:30:52.024Z,96975.84
2023-07-16T16:33:18.872Z,96996.94
2023-07-16T16:35:45.650Z,96973.34
2023-07-16T16:38:14.286Z,96948.72
2023-07-16T16:40:41.546Z,96995.84
2023-07-16T16:43:08.910Z,97005.34
2023-07-16T16:45:39.882Z,96998.22
2023-07-16T16:48:06.877Z,97001.69
2023-07-16T16:50:33.645Z,96994.34
2023-07-16T16:53:00.540Z,97001.88
2023-07-16T16:55:27.772Z,96985.75
2023-07-16T16:57:54.493Z,97004.72
2023-07-16T17:00:21.521Z,97011.06
2023-07-16T17:02:48.477Z,96989.41
2023-07-16T17:05:15.759Z,97011.09
2023-07-16T17:07:42.614Z,97018.78
2023-07-16T17:10:10.129Z,96993.75
2023-07-16T17:12:39.249Z,97018.88
2023-07-16T17:15:07.054Z,96995.09
2023-07-16T17:17:34.011Z,97025.91
2023-07-16T17:20:01.255Z,96981.47
2023-07-16T17:22:28.318Z,96987.53
2023-07-16T17:24:55.197Z,97038.38
2023-07-16T17:27:21.949Z,96977.44
2023-07-16T17:29:49.653Z,97040.47
2023-07-16T17:32:16.532Z,97039.78
2023-07-16T17:34:43.347Z,97042.91
2023-07-16T17:37:11.238Z,97048.19
2023-07-16T17:39:38.452Z,97049.56
2023-07-16T17:42:05.679Z,97055.59
2023-07-16T17:44:32.393Z,97013.03
2023-07-16T17:46:59.974Z,97055.56
2023-07-16T17:49:26.944Z,96993.84
2023-07-16T17:51:55.098Z,97053.91
2023-07-16T17:54:25.346Z,96972.28
2023-07-16T17:56:55.020Z,97028.34
2023-07-16T17:59:22.678Z,97042.13
2023-07-16T18:01:51.259Z,97043.31
2023-07-16T18:04:19.094Z,97077.16
2023-07-16T18:06:45.995Z,97006.06
2023-07-16T18:09:14.979Z,97076.81
2023-07-16T18:11:43.183Z,97012.41
2023-07-16T18:14:12.289Z,97087.16
2023-07-16T18:16:39.322Z,97091.31
2023-07-16T18:19:07.606Z,97104.78
2023-07-16T18:21:40.671Z,97076.91
2023-07-16T18:24:17.795Z,97081.06
2023-07-16T18:26:44.481Z,97100.22
2023-07-16T18:29:11.454Z,97103.69
2023-07-16T18:31:38.438Z,97117.56
2023-07-16T18:34:06.025Z,97072.00
2023-07-16T18:36:32.678Z,97130.09
2023-07-16T18:38:59.445Z,97110.78
2023-07-16T18:41:26.149Z,97141.28
2023-07-16T18:43:53.534Z,97117.28
2023-07-16T18:46:20.588Z,97094.91
2023-07-16T18:48:47.656Z,97121.72
2023-07-16T18:51:14.387Z,97116.41
2023-07-16T18:53:41.019Z,97096.50
2023-07-16T18:56:07.679Z,97126.00
2023-07-16T18:58:34.429Z,97165.72
2023-07-16T19:01:02.393Z,97174.66
2023-07-16T19:03:29.164Z,97067.06
2023-07-16T19:05:55.834Z,97086.88
2023-07-16T19:08:23.111Z,97150.31
2023-07-16T19:10:49.775Z,97192.66
2023-07-16T19:13:16.597Z,97163.91
2023-07-16T19:15:43.286Z,97149.09
2023-07-16T19:18:10.147Z,97156.41
2023-07-16T19:20:36.873Z,97141.56
2023-07-16T19:23:03.949Z,97138.81
2023-07-16T19:25:31.893Z,97208.44
2023-07-16T19:27:58.619Z,97192.53
2023-07-16T19:30:25.332Z,97124.13
2023-07-16T19:32:52.713Z,97213.75
2023-07-16T19:35:19.735Z,97146.94
2023-07-16T19:37:46.442Z,97149.28
2023-07-16T19:40:13.376Z,97219.69
2023-07-16T19:42:40.724Z,97223.78
2023-07-16T19:45:08.170Z,97186.03
2023-07-16T19:47:35.164Z,97194.59
2023-07-16T19:50:06.291Z,97131.78
2023-07-16T19:52:33.798Z,97211.34
2023-07-16T19:55:02.309Z,97203.16
2023-07-16T19:57:34.252Z,97252.44
2023-07-16T20:00:04.892Z,97193.31
2023-07-16T20:02:33.829Z,97214.50
2023-07-16T20:05:00.654Z,97256.25
2023-07-16T20:07:27.400Z,97185.28
2023-07-16T20:09:55.217Z,97218.84
2023-07-16T20:12:22.013Z,97258.69
2023-07-16T20:14:50.647Z,97264.22
2023-07-16T20:17:18.897Z,97254.47
2023-07-16T20:19:45.610Z,97274.47
2023-07-16T20:22:12.251Z,97229.06
2023-07-16T20:24:38.875Z,97274.66
2023-07-16T20:27:06.185Z,97265.47
2023-07-16T20:29:32.848Z,97271.03
2023-07-16T20:32:02.201Z,97271.50
2023-07-16T20:34:30.191Z,97264.63
2023-07-16T20:36:57.086Z,97240.97
2023-07-16T20:39:23.749Z,97247.97
2023-07-16T20:41:50.456Z,97274.25
2023-07-16T20:44:17.140Z,97284.91
2023-07-16T20:46:43.808Z,97240.09
2023-07-16T20:49:10.455Z,97247.91
2023-07-16T20:51:37.233Z,97242.28
2023-07-16T20:54:04.504Z,97291.72
2023-07-16T20:56:31.226Z,97286.50
2023-07-16T20:58:57.870Z,97172.38
2023-07-16T21:01:24.522Z,97283.00
2023-07-16T21:03:51.272Z,97289.84
2023-07-16T21:06:17.926Z,97281.13
2023-07-16T21:08:44.644Z,97275.81
2023-07-16T21:11:11.350Z,97267.63
2023-07-16T21:13:38.038Z,97257.16
2023-07-16T21:16:04.925Z,97282.25
2023-07-16T21:18:31.509Z,97284.47
2023-07-16T21:20:58.244Z,97192.19
2023-07-16T21:23:25.503Z,97207.13
2023-07-16T21:25:52.269Z,97282.03
2023-07-16T21:28:18.963Z,97226.09
2023-07-16T21:30:45.817Z,97273.84
2023-07-16T21:33:12.547Z,97293.81
2023-07-16T21:35:39.343Z,97258.19
2023-07-16T21:38:06.010Z,97298.94
2023-07-16T21:40:35.795Z,97245.91
2023-07-16T21:43:04.837Z,97266.53
2023-07-16T21:45:31.641Z,97257.88
2023-07-16T21:47:58.592Z,97310.13
2023-07-16T21:50:25.382Z,97291.78
2023-07-16T21:52:52.217Z,97294.09
2023-07-16T21:55:19.131Z,97322.63
2023-07-16T21:57:45.790Z,97317.81
2023-07-16T22:00:15.552Z,97318.38
2023-07-16T22:02:43.313Z,97309.53
2023-07-16T22:05:10.817Z,97291.91
2023-07-16T22:07:37.570Z,97305.47
2023-07-16T22:10:06.489Z,97270.91
2023-07-16T22:12:33.439Z,97276.22
2023-07-16T22:15:00.210Z,97312.28
2023-07-16T22:17:27.407Z,97319.50
2023-07-16T22:19:54.099Z,97218.59
2023-07-16T22:22:20.755Z,97314.84
2023-07-16T22:24:47.420Z,97321.03
2023-07-16T22:27:14.105Z,97318.66
2023-07-16T22:29:40.743Z,97300.09
2023-07-16T22:32:08.100Z,97299.72
2023-07-16T22:34:34.734Z,97312.97
2023-07-16T22:37:01.437Z,97305.78
2023-07-16T22:39:28.078Z,97324.31
2023-07-16T22:41:54.764Z,97320.13
2023-07-16T22:44:21.483Z,97233.28
2023-07-16T22:46:48.170Z,97291.75
2023-07-16T22:49:14.778Z,97312.59
2023-07-16T22:51:41.440Z,97267.47
2023-07-16T22:54:08.247Z,97304.84
2023-07-16T22:56:35.201Z,97306.41
2023-07-16T22:59:01.970Z,97284.69
2023-07-16T23:01:29.260Z,97309.50
2023-07-16T23:03:55.955Z,97310.19
2023-07-16T23:06:22.828Z,97274.41
2023-07-16T23:08:49.449Z,97295.84
2023-07-16T23:11:16.333Z,97246.44
2023-07-16T23:13:43.284Z,97306.25
2023-07-16T23:16:09.949Z,97294.09
2023-07-16T23:18:36.791Z,97208.72
2023-07-16T23:21:03.537Z,97215.94
2023-07-16T23:23:31.419Z,97322.66
2023-07-16T23:25:57.993Z,96951.22
2023-07-16T23:28:24.620Z,97288.97
2023-07-16T23:30:51.292Z,97306.44
2023-07-16T23:33:18.673Z,97281.03
2023-07-16T23:35:45.497Z,97078.63
2023-07-16T23:38:13.033Z,97307.41
2023-07-16T23:40:40.100Z,97320.03
2023-07-16T23:43:06.808Z,97312.44
2023-07-16T23:45:33.636Z,97263.13
2023-07-16T23:48:00.401Z,97301.41
2023-07-16T23:50:28.110Z,97288.59
2023-07-16T23:52:54.826Z,97303.44
2023-07-16T23:55:21.446Z,97266.31
2023-07-16T23:57:48.130Z,97262.97
